Time;durP1;ratioP1;P1;durP2;ratioP2;P2;SDS_P1;SDS_P2;PMS_P1;PMS_P2;Temp;Humidity;BMP_temperature;BMP_pressure;BME280_temperature;BME280_humidity;BME280_pressure;Samples;Min_cycle;Max_cycle;Signal;HPM_P1;HPM_P2
2023/01/26 00:02:08;;;;;;;44.50;16.60;;;;;;;;;;109929;1284;22801;-79
2023/01/26 00:04:37;;;;;;;45.70;17.40;;;;;;;;;;109908;1284;22841;-79
2023/01/26 00:07:04;;;;;;;46.10;17.20;;;;;;;;;;109847;1261;22539;-80
2023/01/26 00:09:31;;;;;;;40.80;16.00;;;;;;;;;;109848;1278;22151;-79
2023/01/26 00:11:58;;;;;;;42.90;16.00;;;;;;;;;;110349;1278;22233;-79
2023/01/26 00:14:48;;;;;;;43.90;15.80;;;;;;;;;;110151;1278;22816;-79
2023/01/26 00:24:21;;;;;;;42.30;15.90;;;;;;;;;;109893;1285;22800;-80
2023/01/26 00:26:48;;;;;;;38.60;13.10;;;;;;;;;;109814;1285;22156;-80
2023/01/26 00:29:16;;;;;;;30.90;11.90;;;;;;;;;;109812;1265;22673;-79
2023/01/26 00:31:42;;;;;;;32.00;11.90;;;;;;;;;;109906;1285;22816;-79
2023/01/26 00:34:09;;;;;;;37.30;14.00;;;;;;;;;;109911;1285;22791;-79
2023/01/26 00:36:36;;;;;;;32.70;12.40;;;;;;;;;;109782;1285;22833;-79
2023/01/26 00:39:03;;;;;;;33.20;12.00;;;;;;;;;;109866;1264;22198;-81
2023/01/26 00:44:15;;;;;;;45.40;16.90;;;;;;;;;;109896;1282;22174;-79
2023/01/26 00:46:42;;;;;;;44.10;16.40;;;;;;;;;;109776;1285;22209;-79
2023/01/26 00:49:09;;;;;;;44.40;16.10;;;;;;;;;;109906;1267;22172;-79
2023/01/26 00:51:36;;;;;;;43.20;16.30;;;;;;;;;;109858;1285;22216;-79
2023/01/26 00:54:04;;;;;;;45.10;16.00;;;;;;;;;;109744;1285;22322;-79
2023/01/26 00:56:31;;;;;;;44.10;15.30;;;;;;;;;;109902;1280;22314;-79
2023/01/26 00:58:59;;;;;;;47.00;16.10;;;;;;;;;;110329;1262;22166;-79
2023/01/26 01:01:26;;;;;;;43.30;15.40;;;;;;;;;;110206;1280;22431;-79
2023/01/26 01:03:53;;;;;;;45.00;16.90;;;;;;;;;;110108;1274;22578;-79
2023/01/26 01:06:20;;;;;;;45.10;16.70;;;;;;;;;;110118;1280;22786;-79
2023/01/26 01:08:47;;;;;;;43.40;16.60;;;;;;;;;;110108;1263;22146;-80
2023/01/26 01:11:14;;;;;;;44.60;17.20;;;;;;;;;;110045;1280;22174;-79
2023/01/26 01:13:41;;;;;;;45.30;17.10;;;;;;;;;;109993;1280;22035;-79
2023/01/26 01:16:11;;;;;;;42.90;16.50;;;;;;;;;;110028;1280;22221;-79
2023/01/26 01:18:37;;;;;;;40.90;15.80;;;;;;;;;;110186;1256;22093;-80
2023/01/26 01:21:05;;;;;;;43.30;15.60;;;;;;;;;;110080;1280;22136;-80
2023/01/26 01:23:40;;;;;;;34.40;12.90;;;;;;;;;;110064;1280;22119;-79
2023/01/26 01:26:11;;;;;;;36.20;12.80;;;;;;;;;;110137;1280;22138;-79
2023/01/26 01:28:41;;;;;;;39.60;14.40;;;;;;;;;;110043;1257;22167;-79
2023/01/26 01:31:09;;;;;;;39.50;15.10;;;;;;;;;;110002;1280;22162;-80
2023/01/26 01:33:37;;;;;;;37.70;13.80;;;;;;;;;;110071;1280;22904;-79
2023/01/26 01:36:06;;;;;;;37.20;14.00;;;;;;;;;;110050;1278;22121;-79
2023/01/26 01:38:34;;;;;;;35.90;14.20;;;;;;;;;;110027;1280;22521;-79
2023/01/26 01:41:01;;;;;;;40.60;15.30;;;;;;;;;;110455;1259;22141;-79
2023/01/26 01:43:29;;;;;;;33.90;14.00;;;;;;;;;;110076;1280;22214;-80
2023/01/26 01:45:58;;;;;;;33.70;14.10;;;;;;;;;;110046;1280;22151;-79
2023/01/26 01:48:32;;;;;;;34.50;13.80;;;;;;;;;;110088;1280;22832;-79
2023/01/26 01:51:02;;;;;;;32.50;12.40;;;;;;;;;;110123;1260;22149;-79
2023/01/26 01:53:33;;;;;;;37.50;14.30;;;;;;;;;;110023;1281;22122;-79
2023/01/26 01:56:03;;;;;;;42.50;15.90;;;;;;;;;;110058;1280;22128;-79
2023/01/26 01:58:39;;;;;;;33.80;12.00;;;;;;;;;;110049;1279;22177;-80
2023/01/26 02:01:07;;;;;;;33.80;13.90;;;;;;;;;;110095;1263;23221;-80
2023/01/26 02:03:35;;;;;;;35.30;14.00;;;;;;;;;;110076;1280;22120;-79
2023/01/26 02:06:03;;;;;;;33.00;11.70;;;;;;;;;;110132;1280;22011;-79
2023/01/26 02:08:49;;;;;;;30.00;10.90;;;;;;;;;;110086;1278;22298;-79
2023/01/26 02:11:23;;;;;;;30.20;11.00;;;;;;;;;;110333;1259;22145;-79
2023/01/26 02:13:56;;;;;;;29.30;10.50;;;;;;;;;;110125;1275;21737;-79
2023/01/26 02:16:24;;;;;;;29.50;11.40;;;;;;;;;;110077;1280;22128;-79
2023/01/26 02:18:51;;;;;;;32.90;11.60;;;;;;;;;;110098;1280;22150;-80
2023/01/26 02:21:21;;;;;;;30.70;11.00;;;;;;;;;;110386;1262;22142;-80
2023/01/26 02:24:15;;;;;;;32.50;10.90;;;;;;;;;;110070;1266;22140;-79
2023/01/26 02:26:44;;;;;;;30.90;10.80;;;;;;;;;;110082;1281;22962;-79
2023/01/26 02:29:13;;;;;;;29.70;12.30;;;;;;;;;;110055;1281;22118;-80
2023/01/26 02:31:44;;;;;;;31.70;13.30;;;;;;;;;;110296;1262;22144;-80
2023/01/26 02:34:14;;;;;;;31.40;12.50;;;;;;;;;;109970;1280;22095;-79
2023/01/26 02:36:43;;;;;;;31.90;11.90;;;;;;;;;;110054;1281;22903;-80
2023/01/26 02:39:27;;;;;;;30.80;12.10;;;;;;;;;;110030;1281;22136;-80
2023/01/26 02:45:00;;;;;;;34.40;12.30;;;;;;;;;;109921;1283;22963;-79
2023/01/26 02:47:31;;;;;;;34.10;11.90;;;;;;;;;;109949;1284;22457;-80
2023/01/26 02:50:01;;;;;;;42.10;12.60;;;;;;;;;;109909;1284;22187;-80
2023/01/26 02:52:31;;;;;;;32.20;12.60;;;;;;;;;;109834;1284;22336;-80
2023/01/26 02:55:23;;;;;;;34.10;12.10;;;;;;;;;;109911;1284;22165;-80
2023/01/26 02:57:54;;;;;;;32.40;11.80;;;;;;;;;;109847;1284;22166;-81
2023/01/26 03:00:24;;;;;;;31.90;12.00;;;;;;;;;;109882;1262;22218;-80
2023/01/26 03:02:55;;;;;;;33.00;12.00;;;;;;;;;;109786;1284;22189;-80
2023/01/26 03:05:27;;;;;;;37.50;12.60;;;;;;;;;;109947;1284;22851;-80
2023/01/26 03:07:56;;;;;;;33.80;12.60;;;;;;;;;;109934;1284;22174;-80
2023/01/26 03:10:29;;;;;;;34.80;12.50;;;;;;;;;;109881;1277;22390;-80
2023/01/26 03:12:58;;;;;;;30.20;10.50;;;;;;;;;;109763;1269;22735;-80
2023/01/26 03:15:41;;;;;;;31.70;12.00;;;;;;;;;;109777;1284;22176;-79
2023/01/26 03:31:09;;;;;;;30.00;11.30;;;;;;;;;;103989;1292;545010;-83
2023/01/26 03:33:56;;;;;;;31.00;12.00;;;;;;;;;;106442;1286;23878;-81
2023/01/26 03:36:38;;;;;;;;;;;;;;;;;;;;;
2023/01/26 03:57:33;;;;;;;29.50;11.40;;;;;;;;;;107243;1251;22482;-82
2023/01/26 04:00:08;;;;;;;32.30;11.10;;;;;;;;;;107136;1272;22530;-82
2023/01/26 04:08:26;;;;;;;30.40;11.10;;;;;;;;;;110672;1273;22166;-80
2023/01/26 04:11:02;;;;;;;28.90;10.40;;;;;;;;;;110596;1250;22129;-80
2023/01/26 04:22:07;;;;;;;30.00;10.90;;;;;;;;;;110605;1255;22182;-79
2023/01/26 04:24:38;;;;;;;28.70;10.10;;;;;;;;;;110640;1273;22427;-80
2023/01/26 04:27:09;;;;;;;27.60;9.40;;;;;;;;;;110699;1273;22139;-80
2023/01/26 04:29:38;;;;;;;29.70;10.40;;;;;;;;;;110401;1273;22172;-80
2023/01/26 04:32:05;;;;;;;29.80;11.70;;;;;;;;;;110830;1256;22847;-80
2023/01/26 04:34:35;;;;;;;27.60;10.10;;;;;;;;;;110426;1273;22390;-80
2023/01/26 04:37:08;;;;;;;27.50;10.50;;;;;;;;;;110661;1273;22275;-80
2023/01/26 04:39:43;;;;;;;31.10;11.20;;;;;;;;;;110696;1273;22312;-80
2023/01/26 04:42:11;;;;;;;28.30;10.10;;;;;;;;;;110679;1258;22821;-80
2023/01/26 04:44:46;;;;;;;25.70;9.40;;;;;;;;;;110674;1273;22308;-80
2023/01/26 04:47:15;;;;;;;29.90;9.90;;;;;;;;;;110423;1273;22891;-80
2023/01/26 04:49:55;;;;;;;30.10;10.40;;;;;;;;;;110450;1273;22763;-80
2023/01/26 04:52:43;;;;;;;24.80;9.30;;;;;;;;;;110979;1255;22530;-80
2023/01/26 04:55:10;;;;;;;25.90;9.30;;;;;;;;;;110534;1273;23030;-80
2023/01/26 04:57:49;;;;;;;27.20;10.50;;;;;;;;;;110746;1273;22216;-80
2023/01/26 05:00:16;;;;;;;28.80;11.30;;;;;;;;;;110735;1273;22344;-80
2023/01/26 05:02:46;;;;;;;27.30;10.50;;;;;;;;;;110573;1260;22864;-80
2023/01/26 05:05:33;;;;;;;23.20;9.10;;;;;;;;;;110568;1273;22760;-80
2023/01/26 05:08:04;;;;;;;26.60;10.00;;;;;;;;;;110420;1273;22866;-80
2023/01/26 05:10:42;;;;;;;23.60;9.00;;;;;;;;;;110390;1273;22135;-80
2023/01/26 05:14:14;;;;;;;26.20;9.60;;;;;;;;;;110751;1256;22437;-80
2023/01/26 05:17:01;;;;;;;26.10;9.40;;;;;;;;;;110709;1273;22774;-80
2023/01/26 05:19:49;;;;;;;24.80;9.70;;;;;;;;;;110776;1273;22373;-80
2023/01/26 05:22:45;;;;;;;23.60;9.00;;;;;;;;;;110720;1255;22156;-80
2023/01/26 05:25:38;;;;;;;24.90;9.50;;;;;;;;;;110393;1274;22201;-80
2023/01/26 05:28:20;;;;;;;25.80;9.90;;;;;;;;;;110612;1274;22178;-80
2023/01/26 05:30:47;;;;;;;23.50;9.20;;;;;;;;;;110352;1267;22109;-80
2023/01/26 05:33:20;;;;;;;23.00;9.50;;;;;;;;;;110626;1258;22268;-80
2023/01/26 05:35:53;;;;;;;24.00;9.70;;;;;;;;;;110519;1274;22099;-80
2023/01/26 05:38:20;;;;;;;27.00;11.40;;;;;;;;;;110698;1274;22096;-80
2023/01/26 05:41:08;;;;;;;26.70;11.20;;;;;;;;;;110512;1274;22120;-80
2023/01/26 05:43:55;;;;;;;28.30;11.40;;;;;;;;;;110657;1255;22103;-80
2023/01/26 05:51:01;;;;;;;22.70;8.30;;;;;;;;;;110551;1275;22135;-80
2023/01/26 05:53:30;;;;;;;23.70;9.40;;;;;;;;;;110466;1259;22108;-80
2023/01/26 05:56:00;;;;;;;25.60;9.00;;;;;;;;;;110674;1273;22132;-80
2023/01/26 05:58:28;;;;;;;22.30;9.00;;;;;;;;;;110765;1273;22110;-80
2023/01/26 06:00:56;;;;;;;22.80;8.70;;;;;;;;;;110676;1273;22123;-80
2023/01/26 06:03:28;;;;;;;21.90;8.30;;;;;;;;;;110694;1255;22173;-80
2023/01/26 06:05:55;;;;;;;24.00;8.60;;;;;;;;;;110614;1275;22131;-80
2023/01/26 06:08:31;;;;;;;22.20;9.20;;;;;;;;;;110644;1275;22740;-80
2023/01/26 06:11:33;;;;;;;21.60;9.70;;;;;;;;;;110645;1275;21800;-80
2023/01/26 06:14:16;;;;;;;24.50;10.10;;;;;;;;;;110756;1256;22154;-80
2023/01/26 06:16:43;;;;;;;24.70;9.70;;;;;;;;;;110702;1273;22135;-80
2023/01/26 06:19:10;;;;;;;22.40;10.20;;;;;;;;;;110673;1273;22097;-80
2023/01/26 06:21:38;;;;;;;25.60;10.10;;;;;;;;;;110684;1273;22817;-80
2023/01/26 06:24:08;;;;;;;32.00;10.60;;;;;;;;;;110440;1258;22743;-80
2023/01/26 06:26:40;;;;;;;34.10;9.20;;;;;;;;;;110598;1275;22121;-80
2023/01/26 06:29:11;;;;;;;28.90;9.90;;;;;;;;;;110575;1275;22119;-81
2023/01/26 06:31:48;;;;;;;32.80;9.90;;;;;;;;;;110337;1274;22765;-80
2023/01/26 06:34:25;;;;;;;;;;;;;;;;;;;;;
2023/01/26 06:36:55;;;;;;;21.40;7.30;;;;;;;;;;110643;1274;22122;-80
2023/01/26 06:39:28;;;;;;;18.90;7.90;;;;;;;;;;110628;1274;22830;-80
2023/01/26 06:41:55;;;;;;;20.30;7.80;;;;;;;;;;110625;1275;22122;-80
2023/01/26 06:44:22;;;;;;;24.30;9.10;;;;;;;;;;110648;1257;22130;-80
2023/01/26 06:47:04;;;;;;;;;;;;;;;;;;;;;
2023/01/26 06:49:41;;;;;;;21.60;8.90;;;;;;;;;;110588;1275;22536;-80
2023/01/26 06:52:41;;;;;;;21.60;8.70;;;;;;;;;;110397;1275;22098;-81
2023/01/26 06:55:54;;;;;;;25.20;9.40;;;;;;;;;;110924;1256;23163;-80
2023/01/26 06:58:53;;;;;;;23.90;10.00;;;;;;;;;;110645;1274;22773;-80
2023/01/26 07:01:47;;;;;;;22.20;8.70;;;;;;;;;;110627;1274;22118;-80
2023/01/26 07:04:26;;;;;;;25.00;9.30;;;;;;;;;;110621;1253;22367;-80
2023/01/26 07:07:03;;;;;;;24.30;9.80;;;;;;;;;;110372;1275;22201;-81
2023/01/26 07:09:36;;;;;;;24.40;10.00;;;;;;;;;;110470;1275;22272;-80
2023/01/26 07:12:08;;;;;;;27.30;12.20;;;;;;;;;;110567;1275;22124;-80
2023/01/26 07:14:35;;;;;;;40.00;17.70;;;;;;;;;;110369;1251;22156;-80
2023/01/26 07:17:05;;;;;;;32.60;13.60;;;;;;;;;;110627;1274;22856;-80
2023/01/26 07:19:32;;;;;;;67.90;24.00;;;;;;;;;;110629;1274;23202;-80
2023/01/26 07:22:07;;;;;;;45.10;17.10;;;;;;;;;;110642;1274;22295;-80
2023/01/26 07:24:51;;;;;;;30.80;13.20;;;;;;;;;;110599;1252;22326;-81
2023/01/26 07:27:19;;;;;;;47.10;17.00;;;;;;;;;;110368;1263;22231;-80
2023/01/26 07:30:00;;;;;;;37.00;14.60;;;;;;;;;;110340;1275;22427;-80
2023/01/26 07:32:30;;;;;;;27.70;11.40;;;;;;;;;;110397;1275;22103;-79
2023/01/26 07:34:57;;;;;;;30.30;13.30;;;;;;;;;;110312;1251;22170;-80
2023/01/26 07:37:28;;;;;;;28.50;12.50;;;;;;;;;;110508;1275;22135;-80
2023/01/26 07:39:54;;;;;;;29.00;14.20;;;;;;;;;;110513;1274;22112;-79
2023/01/26 07:42:22;;;;;;;27.20;14.30;;;;;;;;;;110715;1275;22114;-80
2023/01/26 07:45:04;;;;;;;29.50;14.70;;;;;;;;;;110492;1253;22388;-80
2023/01/26 07:47:35;;;;;;;38.70;19.60;;;;;;;;;;110361;1275;22128;-80
2023/01/26 07:50:26;;;;;;;39.40;18.40;;;;;;;;;;110612;1275;22103;-80
2023/01/26 07:53:07;;;;;;;35.20;15.90;;;;;;;;;;110592;1275;22641;-81
2023/01/26 07:55:35;;;;;;;37.10;17.10;;;;;;;;;;110482;1251;22188;-80
2023/01/26 07:58:02;;;;;;;38.30;16.80;;;;;;;;;;110647;1274;22312;-79
2023/01/26 08:00:29;;;;;;;30.50;14.10;;;;;;;;;;110649;1274;22101;-80
2023/01/26 08:02:56;;;;;;;31.70;12.80;;;;;;;;;;110669;1275;22108;-80
2023/01/26 08:05:22;;;;;;;27.10;11.80;;;;;;;;;;110594;1253;23075;-80
2023/01/26 08:07:52;;;;;;;29.90;11.50;;;;;;;;;;110275;1275;22746;-80
2023/01/26 08:10:21;;;;;;;28.50;11.30;;;;;;;;;;110371;1275;22102;-80
2023/01/26 08:12:51;;;;;;;28.50;11.00;;;;;;;;;;110378;1273;22043;-79
2023/01/26 08:15:18;;;;;;;21.90;9.60;;;;;;;;;;110278;1275;22274;-80
2023/01/26 08:17:45;;;;;;;25.80;10.80;;;;;;;;;;110921;1259;22206;-80
2023/01/26 08:20:12;;;;;;;27.90;11.50;;;;;;;;;;110629;1274;22081;-79
2023/01/26 08:22:39;;;;;;;32.40;11.40;;;;;;;;;;110620;1276;22093;-79
2023/01/26 08:25:06;;;;;;;35.40;12.90;;;;;;;;;;110480;1276;22259;-80
2023/01/26 08:27:36;;;;;;;48.30;17.20;;;;;;;;;;110614;1260;22183;-80
2023/01/26 08:30:04;;;;;;;86.40;32.70;;;;;;;;;;110116;1278;22923;-80
2023/01/26 08:32:31;;;;;;;209.40;88.70;;;;;;;;;;110335;1278;22115;-79
2023/01/26 08:34:58;;;;;;;219.90;75.90;;;;;;;;;;110165;1278;22139;-79
2023/01/26 08:37:28;;;;;;;188.60;69.40;;;;;;;;;;110616;1260;22682;-80
2023/01/26 08:39:55;;;;;;;184.10;70.60;;;;;;;;;;110378;1276;22119;-80
2023/01/26 08:42:22;;;;;;;108.40;42.50;;;;;;;;;;110370;1276;22102;-80
2023/01/26 08:44:49;;;;;;;79.20;32.60;;;;;;;;;;110455;1276;22796;-79
2023/01/26 08:47:22;;;;;;;37.80;16.90;;;;;;;;;;110640;1258;22142;-79
2023/01/26 08:49:48;;;;;;;41.00;17.00;;;;;;;;;;110345;1277;22235;-79
2023/01/26 08:52:16;;;;;;;38.40;17.90;;;;;;;;;;110340;1277;22112;-80
2023/01/26 08:54:47;;;;;;;39.70;16.20;;;;;;;;;;110419;1277;22139;-80
2023/01/26 08:57:14;;;;;;;41.50;16.30;;;;;;;;;;110412;1260;22182;-80
2023/01/26 08:59:41;;;;;;;43.80;17.80;;;;;;;;;;110331;1276;22847;-80
2023/01/26 09:02:14;;;;;;;43.00;18.00;;;;;;;;;;110616;1276;22104;-80
2023/01/26 09:04:43;;;;;;;44.50;19.40;;;;;;;;;;110484;1276;22862;-80
2023/01/26 09:07:11;;;;;;;62.00;25.20;;;;;;;;;;110666;1259;22151;-80
2023/01/26 09:09:41;;;;;;;66.00;29.80;;;;;;;;;;110431;1274;22102;-79
2023/01/26 09:12:08;;;;;;;60.60;30.50;;;;;;;;;;110133;1277;22093;-79
2023/01/26 09:14:38;;;;;;;43.90;18.50;;;;;;;;;;110120;1277;22483;-80
2023/01/26 09:17:07;;;;;;;37.10;15.90;;;;;;;;;;110365;1253;22205;-80
2023/01/26 09:19:34;;;;;;;38.90;16.90;;;;;;;;;;110480;1276;22103;-79
2023/01/26 09:22:01;;;;;;;34.20;15.30;;;;;;;;;;110460;1276;22276;-80
2023/01/26 09:24:29;;;;;;;34.50;14.20;;;;;;;;;;110461;1276;22744;-79
2023/01/26 09:26:57;;;;;;;34.10;14.80;;;;;;;;;;110429;1276;22409;-79
2023/01/26 09:29:34;;;;;;;37.50;14.60;;;;;;;;;;110232;1263;22166;-80
2023/01/26 09:32:01;;;;;;;34.10;13.90;;;;;;;;;;110352;1278;22122;-79
2023/01/26 09:34:29;;;;;;;34.50;14.60;;;;;;;;;;110230;1277;22613;-80
2023/01/26 09:37:00;;;;;;;38.40;15.70;;;;;;;;;;110360;1278;22221;-79
2023/01/26 09:39:27;;;;;;;36.90;14.50;;;;;;;;;;110836;1259;22125;-80
2023/01/26 09:42:06;;;;;;;49.80;18.70;;;;;;;;;;110456;1276;22099;-80
2023/01/26 09:44:40;;;;;;;42.70;17.90;;;;;;;;;;110676;1276;22586;-80
2023/01/26 09:47:17;;;;;;;39.10;16.70;;;;;;;;;;110339;1276;22854;-80
2023/01/26 09:49:48;;;;;;;34.00;14.60;;;;;;;;;;110425;1264;23012;-80
2023/01/26 09:52:25;;;;;;;39.60;16.10;;;;;;;;;;110292;1278;22100;-79
2023/01/26 09:54:54;;;;;;;36.10;14.90;;;;;;;;;;110279;1278;22153;-79
2023/01/26 09:57:26;;;;;;;38.00;15.40;;;;;;;;;;110200;1278;22129;-80
2023/01/26 09:59:57;;;;;;;37.10;15.10;;;;;;;;;;110835;1263;22119;-80
2023/01/26 10:02:31;;;;;;;36.00;14.80;;;;;;;;;;110333;1276;22192;-79
2023/01/26 10:05:01;;;;;;;37.40;15.80;;;;;;;;;;110468;1276;22103;-80
2023/01/26 10:07:29;;;;;;;46.40;18.80;;;;;;;;;;110353;1276;22848;-80
2023/01/26 10:09:59;;;;;;;67.20;24.70;;;;;;;;;;110431;1264;22135;-79
2023/01/26 10:12:29;;;;;;;52.00;22.30;;;;;;;;;;110190;1278;22119;-80
2023/01/26 10:15:00;;;;;;;43.70;16.60;;;;;;;;;;110208;1278;22139;-80
2023/01/26 10:17:33;;;;;;;37.70;15.10;;;;;;;;;;110193;1278;22121;-79
2023/01/26 10:20:16;;;;;;;39.00;15.50;;;;;;;;;;110812;1257;22131;-80
2023/01/26 10:22:48;;;;;;;35.40;15.00;;;;;;;;;;110453;1277;22171;-80
2023/01/26 10:25:25;;;;;;;30.50;13.20;;;;;;;;;;110332;1278;22941;-79
2023/01/26 10:27:54;;;;;;;30.10;12.60;;;;;;;;;;110445;1277;22130;-80
2023/01/26 10:30:24;;;;;;;27.30;12.90;;;;;;;;;;110524;1269;22094;-80
2023/01/26 10:33:04;;;;;;;;;;;;;;;;;;;;;
2023/01/26 10:35:42;;;;;;;33.30;15.80;;;;;;;;;;110218;1278;22119;-80
2023/01/26 10:38:39;;;;;;;31.60;12.40;;;;;;;;;;110227;1278;22121;-80
2023/01/26 10:41:34;;;;;;;32.00;15.40;;;;;;;;;;110717;1256;22156;-80
2023/01/26 10:44:30;;;;;;;31.50;13.30;;;;;;;;;;110435;1277;22882;-80
2023/01/26 10:47:05;;;;;;;26.20;10.00;;;;;;;;;;110446;1277;22147;-79
2023/01/26 10:49:35;;;;;;;23.80;10.40;;;;;;;;;;110325;1260;22978;-80
2023/01/26 10:53:03;;;;;;;25.40;10.50;;;;;;;;;;110166;1278;22140;-80
2023/01/26 10:55:26;;;;;;;24.30;10.50;;;;;;;;;;110239;1278;22334;-80
2023/01/26 10:57:56;;;;;;;28.30;11.10;;;;;;;;;;110199;1278;22177;-80
2023/01/26 11:00:31;;;;;;;31.30;12.30;;;;;;;;;;110589;1257;22781;-79
2023/01/26 11:03:06;;;;;;;30.90;11.80;;;;;;;;;;110311;1277;22142;-80
2023/01/26 11:05:37;;;;;;;30.90;13.00;;;;;;;;;;110290;1274;22265;-79
2023/01/26 11:08:26;;;;;;;32.60;13.10;;;;;;;;;;110446;1277;22793;-80
2023/01/26 11:11:09;;;;;;;;;;;;;;;;;;;;;
2023/01/26 11:13:39;;;;;;;39.00;15.20;;;;;;;;;;110150;1278;22095;-80
2023/01/26 11:16:24;;;;;;;34.30;13.60;;;;;;;;;;110146;1278;21964;-79
2023/01/26 11:18:56;;;;;;;39.80;15.70;;;;;;;;;;110092;1278;21774;-79
2023/01/26 11:31:46;;;;;;;27.90;12.70;;;;;;;;;;104235;1292;545869;-87
2023/01/26 11:34:22;;;;;;;25.60;11.30;;;;;;;;;;106436;1285;24267;-84
2023/01/26 11:37:23;;;;;;;25.20;11.00;;;;;;;;;;106287;1285;22550;-81
2023/01/26 11:39:55;;;;;;;26.50;12.90;;;;;;;;;;106246;1285;22540;-81
2023/01/26 11:43:17;;;;;;;28.30;12.00;;;;;;;;;;106534;1276;25351;-82
2023/01/26 11:45:51;;;;;;;28.00;12.60;;;;;;;;;;102742;1284;5079977;-84
2023/01/26 11:48:45;;;;;;;29.80;11.60;;;;;;;;;;106674;1276;22754;-82
2023/01/26 11:51:51;;;;;;;;;;;;;;;;;;;;;
2023/01/26 11:55:43;;;;;;;32.30;14.80;;;;;;;;;;106653;1276;22536;-82
2023/01/26 11:58:05;;;;;;;41.90;19.90;;;;;;;;;;106630;1276;24254;-80
2023/01/26 12:01:18;;;;;;;;;;;;;;;;;;;;;
2023/01/26 12:04:15;;;;;;;33.20;17.30;;;;;;;;;;106737;1266;22533;-79
2023/01/26 12:06:59;;;;;;;29.40;13.50;;;;;;;;;;106672;1282;22575;-84
2023/01/26 12:09:37;;;;;;;26.60;11.40;;;;;;;;;;106647;1281;22537;-81
2023/01/26 12:12:07;;;;;;;26.20;11.00;;;;;;;;;;106655;1276;22539;-81
2023/01/26 12:15:09;;;;;;;27.30;11.30;;;;;;;;;;106666;1276;22556;-81
2023/01/26 12:18:35;;;;;;;21.80;9.40;;;;;;;;;;107066;1276;24657;-81
2023/01/26 12:21:08;;;;;;;23.80;10.80;;;;;;;;;;107054;1270;22962;-82
2023/01/26 12:24:19;;;;;;;29.70;13.60;;;;;;;;;;106963;1257;22606;-80
2023/01/26 12:27:10;;;;;;;34.90;17.90;;;;;;;;;;107060;1270;24236;-82
2023/01/26 12:29:43;;;;;;;38.00;19.30;;;;;;;;;;106986;1276;22754;-81
2023/01/26 12:32:49;;;;;;;;;;;;;;;;;;;;;
2023/01/26 12:35:42;;;;;;;94.80;37.30;;;;;;;;;;107031;1260;22661;-81
2023/01/26 12:38:33;;;;;;;44.70;20.00;;;;;;;;;;106707;1256;22615;-80
2023/01/26 12:41:31;;;;;;;51.60;20.50;;;;;;;;;;107115;1275;22570;-82
2023/01/26 12:44:41;;;;;;;55.10;24.50;;;;;;;;;;107091;1260;22536;-82
2023/01/26 12:47:31;;;;;;;;;;;;;;;;;;;;;
2023/01/26 12:51:11;;;;;;;26.90;12.60;;;;;;;;;;106991;1276;23868;-81
2023/01/26 12:53:35;;;;;;;29.30;13.70;;;;;;;;;;107113;1261;22553;-82
2023/01/26 12:56:41;;;;;;;27.30;11.90;;;;;;;;;;107259;1263;22786;-84
2023/01/26 12:59:59;;;;;;;25.20;10.10;;;;;;;;;;107269;1278;24063;-80
2023/01/26 13:03:09;;;;;;;28.40;11.90;;;;;;;;;;107309;1278;24390;-81
2023/01/26 13:05:35;;;;;;;40.20;19.30;;;;;;;;;;107323;1278;22548;-80
2023/01/26 13:08:24;;;;;;;34.10;16.00;;;;;;;;;;107379;1270;25236;-82
2023/01/26 13:11:17;;;;;;;33.80;16.10;;;;;;;;;;107418;1270;25217;-81
2023/01/26 13:14:01;;;;;;;37.90;18.10;;;;;;;;;;107899;1274;22222;-80
2023/01/26 13:16:53;;;;;;;39.30;18.50;;;;;;;;;;107239;1260;22446;-81
2023/01/26 13:20:08;;;;;;;25.90;11.90;;;;;;;;;;107296;1260;22558;-82
2023/01/26 13:26:14;;;;;;;;;;;;;;;;;;;;;
2023/01/26 13:29:12;;;;;;;34.70;15.70;;;;;;;;;;107072;1272;22531;-80
2023/01/26 13:31:56;;;;;;;24.50;10.40;;;;;;;;;;106835;1273;24150;-83
2023/01/26 13:35:14;;;;;;;31.10;14.80;;;;;;;;;;107074;1273;22541;-85
2023/01/26 13:38:25;;;;;;;;;;;;;;;;;;;;;
2023/01/26 13:41:46;;;;;;;32.50;16.70;;;;;;;;;;106985;1273;22541;-83
2023/01/26 13:44:59;;;;;;;27.20;11.40;;;;;;;;;;106841;1277;23116;-86
2023/01/26 13:48:17;;;;;;;27.00;11.50;;;;;;;;;;106962;1260;23281;-81
2023/01/26 13:51:24;;;;;;;25.90;11.00;;;;;;;;;;106896;1278;25466;-85
2023/01/26 13:54:17;;;;;;;27.90;12.10;;;;;;;;;;107046;1278;22582;-80
2023/01/26 13:58:04;;;;;;;28.90;13.70;;;;;;;;;;107258;1260;23461;-81
2023/01/26 14:00:35;;;;;;;34.60;17.50;;;;;;;;;;107105;1272;22594;-82
2023/01/26 14:03:20;;;;;;;26.40;10.10;;;;;;;;;;106978;1278;22537;-82
2023/01/26 14:05:58;;;;;;;37.50;17.70;;;;;;;;;;107001;1270;25423;-82
2023/01/26 14:08:25;;;;;;;64.70;31.90;;;;;;;;;;106757;1270;24222;-81
2023/01/26 14:11:02;;;;;;;;;;;;;;;;;;;;;
2023/01/26 14:13:35;;;;;;;25.10;10.90;;;;;;;;;;107002;1275;22559;-81
2023/01/26 14:17:00;;;;;;;;;;;;;;;;;;;;;
2023/01/26 14:20:02;;;;;;;107.80;34.00;;;;;;;;;;106996;1269;22548;-81
2023/01/26 14:23:11;;;;;;;;;;;;;;;;;;;;;
2023/01/26 14:26:08;;;;;;;;;;;;;;;;;;;;;
2023/01/26 14:29:13;;;;;;;;;;;;;;;;;;;;;
2023/01/26 14:31:47;;;;;;;28.50;12.90;;;;;;;;;;107039;1263;25319;-82
2023/01/26 14:34:56;;;;;;;23.70;10.00;;;;;;;;;;107080;1272;24214;-82
2023/01/26 14:37:29;;;;;;;40.20;19.00;;;;;;;;;;107081;1276;22537;-83
2023/01/26 14:41:02;;;;;;;29.90;12.20;;;;;;;;;;107079;1261;22547;-84
2023/01/26 14:44:06;;;;;;;;;;;;;;;;;;;;;
2023/01/26 14:50:26;;;;;;;95.20;51.50;;;;;;;;;;106347;1274;22584;-82
2023/01/26 14:53:18;;;;;;;43.10;20.30;;;;;;;;;;106387;1278;25243;-81
2023/01/26 14:56:08;;;;;;;46.30;23.90;;;;;;;;;;106504;1285;22631;-83
2023/01/26 14:59:42;;;;;;;66.00;35.70;;;;;;;;;;106253;1285;22591;-85
2023/01/26 15:02:10;;;;;;;;;;;;;;;;;;;;;
2023/01/26 15:05:15;;;;;;;37.40;18.10;;;;;;;;;;106434;1285;25463;-82
2023/01/26 15:08:21;;;;;;;90.20;47.60;;;;;;;;;;105858;1291;25537;-82
2023/01/26 15:14:10;;;;;;;;;;;;;;;;;;;;;
2023/01/26 15:17:16;;;;;;;44.20;16.10;;;;;;;;;;106346;1281;22493;-83
2023/01/26 15:20:00;;;;;;;37.80;17.00;;;;;;;;;;105984;1264;22554;-82
2023/01/26 15:22:28;;;;;;;28.10;12.00;;;;;;;;;;106018;1271;25574;-82
2023/01/26 15:25:26;;;;;;;31.40;14.10;;;;;;;;;;106008;1287;22573;-81
2023/01/26 15:28:43;;;;;;;26.20;11.50;;;;;;;;;;106054;1287;22754;-84
2023/01/26 15:31:53;;;;;;;27.10;10.40;;;;;;;;;;106027;1264;24385;-82
2023/01/26 15:34:25;;;;;;;22.10;10.50;;;;;;;;;;106210;1287;24338;-82
2023/01/26 15:37:11;;;;;;;;;;;;;;;;;;;;;
2023/01/26 15:40:05;;;;;;;59.70;21.20;;;;;;;;;;106212;1276;23902;-82
2023/01/26 15:43:21;;;;;;;39.10;14.20;;;;;;;;;;106176;1278;22604;-82
2023/01/26 15:46:39;;;;;;;;;;;;;;;;;;;;;
2023/01/26 15:50:08;;;;;;;23.80;9.80;;;;;;;;;;106610;1282;25399;-82
2023/01/26 15:52:29;;;;;;;20.80;7.50;;;;;;;;;;106450;1273;24324;-83
2023/01/26 15:55:24;;;;;;;24.00;10.20;;;;;;;;;;106455;1282;22547;-81
2023/01/26 15:58:23;;;;;;;26.80;10.80;;;;;;;;;;106777;1276;25484;-82
2023/01/26 16:01:22;;;;;;;;;;;;;;;;;;;;;
2023/01/26 16:04:42;;;;;;;;;;;;;;;;;;;;;
2023/01/26 16:07:35;;;;;;;42.80;19.30;;;;;;;;;;107089;1276;22608;-85
2023/01/26 16:11:17;;;;;;;36.00;15.30;;;;;;;;;;106909;1276;22551;-82
2023/01/26 16:14:27;;;;;;;34.60;14.60;;;;;;;;;;106911;1261;22540;-83
2023/01/26 16:16:54;;;;;;;31.80;14.70;;;;;;;;;;106403;1283;22522;-82
2023/01/26 16:19:28;;;;;;;34.20;13.40;;;;;;;;;;106258;1283;24248;-82
2023/01/26 16:22:14;;;;;;;;;;;;;;;;;;;;;
2023/01/26 16:24:53;;;;;;;31.20;14.00;;;;;;;;;;106359;1274;25301;-81
2023/01/26 16:27:41;;;;;;;38.60;16.80;;;;;;;;;;106612;1281;24229;-83
2023/01/26 16:30:18;;;;;;;36.10;16.70;;;;;;;;;;106355;1284;26498;-81
2023/01/26 16:33:16;;;;;;;32.10;14.80;;;;;;;;;;106340;1270;21772;-84
2023/01/26 16:36:27;;;;;;;38.50;15.50;;;;;;;;;;106581;1277;22649;-85
2023/01/26 16:39:10;;;;;;;34.10;15.30;;;;;;;;;;106560;1280;25248;-81
2023/01/26 16:41:43;;;;;;;33.60;16.30;;;;;;;;;;106520;1283;22816;-82
2023/01/26 16:44:56;;;;;;;33.50;14.20;;;;;;;;;;106467;1284;23885;-83
2023/01/26 16:47:55;;;;;;;32.50;13.00;;;;;;;;;;106581;1277;24250;-82
2023/01/26 16:50:50;;;;;;;41.00;16.90;;;;;;;;;;106636;1278;25428;-82
2023/01/26 16:53:38;;;;;;;58.30;24.40;;;;;;;;;;106817;1254;24375;-84
2023/01/26 16:56:34;;;;;;;43.50;20.00;;;;;;;;;;107182;1273;22547;-82
2023/01/26 16:59:23;;;;;;;42.30;19.80;;;;;;;;;;107087;1273;22534;-81
2023/01/26 17:03:05;;;;;;;36.40;15.60;;;;;;;;;;107308;1273;22537;-82
2023/01/26 17:05:51;;;;;;;;;;;;;;;;;;;;;
2023/01/26 17:09:45;;;;;;;71.20;26.80;;;;;;;;;;107048;1278;22538;-82
2023/01/26 17:12:19;;;;;;;47.10;18.40;;;;;;;;;;106869;1277;24199;-87
2023/01/26 17:14:59;;;;;;;75.90;29.00;;;;;;;;;;110258;1256;22240;-82